Time;durP1;ratioP1;P1;durP2;ratioP2;P2;SDS_P1;SDS_P2;PMS_P1;PMS_P2;Temp;Humidity;BMP_temperature;BMP_pressure;BME280_temperature;BME280_humidity;BME280_pressure;Samples;Min_cycle;Max_cycle;Signal;HPM_P1;HPM_P2
2023/04/14 00:00:27;;;;;;;5.23;3.20;;;11.90;61.30;;;;;;5021034;28;20448;-53
2023/04/14 00:02:53;;;;;;;2.83;2.53;;;11.70;61.60;;;;;;5015246;28;20527;-51
2023/04/14 00:05:19;;;;;;;4.83;3.30;;;11.50;62.60;;;;;;5020191;28;20193;-48
2023/04/14 00:07:44;;;;;;;5.07;3.40;;;11.50;63.70;;;;;;5018571;28;20189;-49
2023/04/14 00:10:10;;;;;;;4.73;2.77;;;11.60;62.90;;;;;;5021888;28;20203;-52
2023/04/14 00:12:36;;;;;;;4.33;2.60;;;11.60;62.70;;;;;;5012940;28;20570;-49
2023/04/14 00:15:01;;;;;;;5.17;3.30;;;11.70;62.40;;;;;;5027159;28;20284;-48
2023/04/14 00:17:27;;;;;;;7.77;3.57;;;11.70;62.00;;;;;;5024884;28;20204;-50
2023/04/14 00:19:52;;;;;;;8.33;2.90;;;11.70;62.10;;;;;;5026082;28;20233;-51
2023/04/14 00:22:20;;;;;;;3.53;3.23;;;11.60;62.00;;;;;;5026089;28;20182;-49
2023/04/14 00:24:46;;;;;;;3.73;3.43;;;11.50;61.80;;;;;;5012309;28;20205;-51
2023/04/14 00:27:12;;;;;;;4.03;3.73;;;11.40;62.20;;;;;;5013093;28;20808;-52
2023/04/14 00:29:38;;;;;;;8.23;4.30;;;11.20;62.80;;;;;;5015027;28;20233;-49
2023/04/14 00:32:07;;;;;;;4.80;4.00;;;11.00;63.50;;;;;;5021945;28;20198;-49
2023/04/14 00:34:33;;;;;;;5.80;5.30;;;10.90;64.60;;;;;;5018370;28;20448;-48
2023/04/14 00:36:58;;;;;;;5.83;5.20;;;10.90;64.80;;;;;;5017085;28;20444;-49
2023/04/14 00:39:24;;;;;;;6.90;5.17;;;10.80;65.00;;;;;;5022047;28;20692;-48
2023/04/14 00:41:50;;;;;;;5.20;4.70;;;10.90;65.30;;;;;;5020072;28;20283;-48
2023/04/14 00:44:15;;;;;;;5.43;4.90;;;10.80;65.00;;;;;;5023234;28;20193;-49
2023/04/14 00:46:42;;;;;;;6.27;5.33;;;10.80;64.90;;;;;;5015891;28;20224;-48
2023/04/14 00:49:08;;;;;;;6.07;4.80;;;10.70;65.00;;;;;;5017665;28;20201;-49
2023/04/14 00:51:35;;;;;;;7.03;5.10;;;10.70;65.00;;;;;;5015122;28;20479;-52
2023/04/14 00:54:08;;;;;;;7.50;6.00;;;10.60;65.30;;;;;;5020482;28;20471;-49
2023/04/14 00:56:34;;;;;;;7.00;5.50;;;10.70;65.60;;;;;;5020985;28;20495;-48
2023/04/14 00:59:01;;;;;;;6.23;5.00;;;10.80;65.20;;;;;;5025808;28;20487;-48
2023/04/14 01:01:30;;;;;;;7.30;4.90;;;10.80;64.60;;;;;;5015800;28;20507;-49
2023/04/14 01:03:56;;;;;;;6.07;5.47;;;10.90;64.90;;;;;;5014708;28;20449;-49
2023/04/14 01:06:22;;;;;;;6.23;4.60;;;10.90;64.40;;;;;;5016614;28;20812;-49
2023/04/14 01:08:49;;;;;;;6.43;5.20;;;10.90;64.20;;;;;;5011642;28;20528;-50
2023/04/14 01:11:30;;;;;;;7.90;5.77;;;11.10;64.00;;;;;;5017473;28;20207;-51
2023/04/14 01:14:25;;;;;;;10.47;6.67;;;11.20;63.80;;;;;;5018981;28;20447;-49
2023/04/14 01:16:56;;;;;;;11.10;9.43;;;10.90;63.90;;;;;;5025090;28;20826;-48
2023/04/14 01:19:45;;;;;;;7.47;6.77;;;11.00;64.20;;;;;;5018620;28;20484;-50
2023/04/14 01:22:13;;;;;;;7.80;6.57;;;11.10;64.20;;;;;;5017911;28;20459;-47
2023/04/14 01:24:39;;;;;;;8.13;5.90;;;11.10;65.00;;;;;;5025589;28;21031;-48
2023/04/14 01:27:13;;;;;;;7.50;6.27;;;11.10;64.10;;;;;;5025640;28;20531;-49
2023/04/14 01:30:01;;;;;;;8.50;6.40;;;11.00;64.30;;;;;;5031162;28;20597;-48
2023/04/14 01:32:30;;;;;;;9.63;6.47;;;11.10;64.70;;;;;;5012101;28;20805;-51
2023/04/14 01:34:58;;;;;;;8.13;6.70;;;11.20;64.40;;;;;;5011474;28;20967;-48
2023/04/14 01:37:29;;;;;;;8.90;6.10;;;11.20;64.10;;;;;;5015200;28;20452;-48
2023/04/14 01:40:00;;;;;;;7.20;5.93;;;11.20;64.20;;;;;;5032267;28;20527;-48
2023/04/14 01:42:34;;;;;;;8.30;5.97;;;11.10;64.60;;;;;;5015321;28;20451;-49
2023/04/14 01:45:08;;;;;;;6.60;5.80;;;11.00;64.90;;;;;;5015635;28;20445;-49
2023/04/14 01:47:35;;;;;;;7.77;5.90;;;11.00;65.40;;;;;;5024888;28;20485;-48
2023/04/14 01:50:02;;;;;;;6.70;5.13;;;11.10;65.10;;;;;;5020821;28;20440;-48
2023/04/14 01:52:29;;;;;;;6.70;5.57;;;11.20;64.70;;;;;;5026865;28;20482;-48
2023/04/14 01:54:56;;;;;;;7.47;5.43;;;11.20;64.30;;;;;;5028397;28;20480;-51
2023/04/14 01:57:25;;;;;;;6.30;5.70;;;11.20;64.50;;;;;;5025115;28;20452;-48
2023/04/14 01:59:53;;;;;;;9.03;5.70;;;11.30;64.20;;;;;;5019036;28;20499;-48
2023/04/14 02:02:21;;;;;;;6.87;5.20;;;11.30;63.90;;;;;;5027990;28;20975;-49
2023/04/14 02:04:49;;;;;;;6.73;6.03;;;11.40;63.60;;;;;;5025860;28;20544;-49
2023/04/14 02:07:16;;;;;;;6.30;5.60;;;11.30;63.40;;;;;;5020973;28;20448;-49
2023/04/14 02:09:42;;;;;;;7.87;5.97;;;11.30;63.60;;;;;;5040202;28;20471;-49
2023/04/14 02:12:10;;;;;;;9.10;5.93;;;11.30;63.40;;;;;;5028122;28;20589;-47
2023/04/14 02:14:39;;;;;;;9.33;5.60;;;11.30;63.20;;;;;;5018394;28;20477;-48
2023/04/14 02:17:08;;;;;;;6.60;5.90;;;11.20;63.40;;;;;;5017794;28;20459;-49
2023/04/14 02:19:35;;;;;;;11.03;6.57;;;11.20;63.70;;;;;;5024067;28;20496;-48
2023/04/14 02:22:02;;;;;;;10.40;6.93;;;11.20;63.50;;;;;;5011485;28;20452;-49
2023/04/14 02:24:29;;;;;;;9.23;6.80;;;11.20;63.50;;;;;;5029337;28;20462;-49
2023/04/14 02:27:04;;;;;;;9.50;7.10;;;11.20;63.50;;;;;;5029153;28;20448;-48
2023/04/14 02:29:32;;;;;;;10.13;7.20;;;11.20;63.60;;;;;;5018529;28;20447;-48
2023/04/14 02:32:13;;;;;;;10.03;7.50;;;11.20;63.50;;;;;;5027945;28;20482;-50
2023/04/14 02:34:51;;;;;;;10.30;7.97;;;11.30;63.40;;;;;;5029716;28;20830;-49
2023/04/14 02:37:24;;;;;;;9.47;6.97;;;11.30;63.40;;;;;;5018977;28;20448;-48
2023/04/14 02:39:56;;;;;;;12.80;8.10;;;11.30;63.20;;;;;;5015069;28;20883;-48
2023/04/14 02:42:25;;;;;;;16.33;9.03;;;11.30;63.30;;;;;;5020887;28;20436;-48
2023/04/14 02:45:01;;;;;;;16.30;8.20;;;11.20;63.30;;;;;;5024199;28;20436;-53
2023/04/14 02:47:37;;;;;;;12.80;7.83;;;11.20;63.50;;;;;;5020225;28;20880;-51
2023/04/14 02:50:05;;;;;;;13.20;7.83;;;11.10;63.60;;;;;;5019327;28;21017;-53
2023/04/14 02:52:32;;;;;;;10.40;8.40;;;11.10;63.70;;;;;;5016457;28;20805;-53
2023/04/14 02:55:00;;;;;;;11.10;8.53;;;11.10;63.90;;;;;;5013983;28;20842;-53
2023/04/14 02:57:26;;;;;;;16.30;8.23;;;11.10;63.90;;;;;;5018250;28;20474;-53
2023/04/14 02:59:53;;;;;;;10.87;7.43;;;11.20;64.10;;;;;;5018254;28;20610;-52
2023/04/14 03:02:20;;;;;;;21.33;8.47;;;11.20;64.10;;;;;;5018476;28;20953;-52
2023/04/14 03:04:46;;;;;;;15.97;7.87;;;11.20;64.00;;;;;;5024676;28;20441;-53
2023/04/14 03:07:15;;;;;;;27.70;8.83;;;11.10;63.90;;;;;;5024729;28;20507;-53
2023/04/14 03:09:41;;;;;;;69.23;12.33;;;11.10;63.90;;;;;;5019302;28;20200;-51
2023/04/14 03:12:11;;;;;;;22.50;8.70;;;11.00;63.90;;;;;;5016699;28;20443;-52
2023/04/14 03:14:37;;;;;;;10.00;7.47;;;10.80;64.60;;;;;;5024140;28;20447;-53
2023/04/14 03:17:04;;;;;;;18.77;8.30;;;10.90;65.00;;;;;;5015821;28;20943;-52
2023/04/14 03:19:31;;;;;;;16.73;8.30;;;11.00;65.00;;;;;;5019038;28;20898;-51
2023/04/14 03:21:58;;;;;;;14.10;7.93;;;10.80;64.80;;;;;;5016598;28;20877;-51
2023/04/14 03:24:29;;;;;;;17.00;8.20;;;10.90;65.10;;;;;;5013457;28;20531;-52
2023/04/14 03:27:01;;;;;;;11.10;7.80;;;10.90;65.00;;;;;;5016618;28;20468;-51
2023/04/14 03:29:33;;;;;;;11.17;8.63;;;11.00;65.00;;;;;;5017815;28;20435;-49
2023/04/14 03:32:03;;;;;;;27.83;7.57;;;11.00;64.70;;;;;;5021786;28;20515;-53
2023/04/14 03:34:30;;;;;;;18.37;7.60;;;11.00;64.40;;;;;;5028043;28;20466;-52
2023/04/14 03:36:57;;;;;;;30.87;8.47;;;11.00;64.10;;;;;;5026923;28;20435;-52
2023/04/14 03:39:26;;;;;;;10.07;6.93;;;11.00;63.80;;;;;;5017640;28;21063;-51
2023/04/14 03:41:54;;;;;;;16.10;6.40;;;11.00;63.70;;;;;;5021167;28;20461;-49
2023/04/14 03:44:21;;;;;;;23.37;6.20;;;11.00;63.40;;;;;;5016827;28;20436;-49
2023/04/14 03:46:48;;;;;;;13.73;6.40;;;11.00;63.20;;;;;;5019932;28;20543;-48
2023/04/14 03:49:16;;;;;;;24.00;6.50;;;10.90;62.80;;;;;;5014176;28;20456;-48
2023/04/14 03:51:44;;;;;;;35.77;7.10;;;10.90;62.50;;;;;;5017702;28;20849;-48
2023/04/14 03:54:14;;;;;;;16.53;5.50;;;10.90;62.20;;;;;;5020518;28;20874;-49
2023/04/14 03:56:44;;;;;;;5.87;5.10;;;10.80;62.10;;;;;;5024689;28;20502;-48
2023/04/14 03:59:13;;;;;;;5.20;4.70;;;10.80;61.90;;;;;;5018236;28;20487;-48
2023/04/14 04:01:40;;;;;;;6.53;5.93;;;10.80;62.00;;;;;;5015018;28;20447;-48
2023/04/14 04:04:06;;;;;;;5.77;5.27;;;10.70;61.90;;;;;;5016793;28;20440;-49
2023/04/14 04:06:32;;;;;;;7.87;7.07;;;10.80;62.00;;;;;;5022066;28;20443;-50
2023/04/14 04:09:00;;;;;;;6.80;6.20;;;10.70;62.10;;;;;;5027207;28;20440;-48
2023/04/14 04:11:27;;;;;;;21.17;7.17;;;10.70;62.20;;;;;;5018146;28;21313;-48
2023/04/14 04:13:55;;;;;;;13.13;6.70;;;10.70;62.20;;;;;;5016673;28;20449;-48
2023/04/14 04:16:23;;;;;;;16.30;7.77;;;10.70;62.20;;;;;;5025884;28;20438;-48
2023/04/14 04:18:50;;;;;;;25.50;8.23;;;10.70;62.30;;;;;;5022224;28;20550;-52
2023/04/14 04:21:17;;;;;;;74.63;9.60;;;10.70;62.40;;;;;;5024431;28;20815;-51
2023/04/14 04:23:47;;;;;;;14.03;7.50;;;10.70;62.70;;;;;;5016153;28;21114;-51
2023/04/14 04:26:13;;;;;;;22.17;7.37;;;10.60;62.80;;;;;;5017459;28;20947;-51
2023/04/14 04:28:39;;;;;;;10.17;7.30;;;10.70;63.20;;;;;;5021068;28;20495;-52
2023/04/14 04:31:08;;;;;;;29.10;7.67;;;10.60;63.00;;;;;;5016302;28;20649;-52
2023/04/14 04:33:34;;;;;;;50.97;7.73;;;10.60;63.20;;;;;;5026724;28;20792;-50
2023/04/14 04:36:00;;;;;;;22.27;7.93;;;10.60;63.30;;;;;;5026298;28;20456;-52
2023/04/14 04:38:26;;;;;;;33.10;7.77;;;10.60;63.30;;;;;;5021603;28;20468;-50
2023/04/14 04:40:52;;;;;;;21.30;7.20;;;10.60;63.10;;;;;;5023894;28;20444;-49
2023/04/14 04:43:18;;;;;;;60.70;8.13;;;10.50;63.10;;;;;;5015697;28;20217;-51
2023/04/14 04:46:10;;;;;;;30.07;8.30;;;10.50;63.20;;;;;;5013405;28;20212;-51
2023/04/14 04:48:35;;;;;;;85.50;9.60;;;10.50;64.20;;;;;;5016306;28;20533;-48
2023/04/14 04:51:01;;;;;;;12.93;5.77;;;10.50;63.40;;;;;;5015899;28;20873;-49
2023/04/14 04:53:26;;;;;;;32.87;6.50;;;10.50;63.20;;;;;;5012235;28;20230;-52
2023/04/14 04:55:52;;;;;;;66.13;7.97;;;10.40;63.10;;;;;;5016055;28;21077;-51
2023/04/14 04:58:17;;;;;;;58.60;8.17;;;10.40;63.10;;;;;;5031372;28;20225;-52
2023/04/14 05:00:43;;;;;;;53.83;7.30;;;10.40;63.10;;;;;;5015815;28;20198;-48
2023/04/14 05:03:08;;;;;;;34.43;6.63;;;10.40;62.70;;;;;;5016812;28;20247;-48
2023/04/14 05:05:35;;;;;;;21.33;4.53;;;10.20;62.20;;;;;;5020670;28;20193;-51
2023/04/14 05:08:01;;;;;;;47.97;6.90;;;10.20;61.90;;;;;;5016585;28;20190;-52
2023/04/14 05:10:27;;;;;;;17.70;5.60;;;10.20;61.80;;;;;;5019194;28;20490;-51
2023/04/14 05:12:52;;;;;;;27.40;5.63;;;10.10;61.70;;;;;;5014154;28;20449;-52
2023/04/14 05:15:18;;;;;;;38.77;6.57;;;10.10;61.90;;;;;;5024287;28;20691;-51
2023/04/14 05:17:44;;;;;;;11.40;4.90;;;10.00;61.80;;;;;;5031014;28;20536;-50
2023/04/14 05:20:10;;;;;;;12.33;6.03;;;10.00;62.00;;;;;;5020712;28;20228;-48
2023/04/14 05:22:36;;;;;;;17.13;7.43;;;10.00;62.40;;;;;;5011172;28;20969;-54
2023/04/14 05:25:01;;;;;;;18.63;6.90;;;10.10;62.50;;;;;;5027074;28;20527;-51
2023/04/14 05:27:27;;;;;;;12.63;7.63;;;10.10;62.60;;;;;;5023108;28;20198;-50
2023/04/14 05:29:52;;;;;;;10.57;6.83;;;10.10;63.50;;;;;;5023834;28;20204;-50
2023/04/14 05:32:19;;;;;;;9.17;6.00;;;10.20;64.20;;;;;;5022840;28;20705;-48
2023/04/14 05:34:45;;;;;;;13.47;5.83;;;10.50;65.90;;;;;;5019591;28;20720;-49
2023/04/14 05:37:10;;;;;;;26.73;5.90;;;10.80;64.90;;;;;;5018639;28;20444;-51
2023/04/14 05:39:36;;;;;;;5.27;4.43;;;11.10;63.90;;;;;;5014143;28;20229;-50
2023/04/14 05:42:02;;;;;;;14.20;4.80;;;11.30;62.80;;;;;;5026926;28;20186;-51
2023/04/14 05:44:27;;;;;;;6.03;4.10;;;11.40;61.50;;;;;;5022566;28;20196;-48
2023/04/14 05:46:53;;;;;;;5.70;4.77;;;11.40;59.80;;;;;;5025578;28;20276;-49
2023/04/14 05:49:18;;;;;;;3.83;3.43;;;11.50;59.40;;;;;;5024979;28;20228;-52
2023/04/14 05:51:44;;;;;;;4.27;3.50;;;11.50;59.20;;;;;;5022783;28;20197;-51
2023/04/14 05:54:09;;;;;;;4.90;4.40;;;11.60;59.30;;;;;;5022531;28;20241;-48
2023/04/14 05:56:35;;;;;;;4.37;3.97;;;11.80;59.30;;;;;;5017416;28;20283;-48
2023/04/14 05:59:01;;;;;;;4.87;4.13;;;12.00;59.10;;;;;;5014820;28;20229;-51
2023/04/14 06:01:27;;;;;;;5.37;4.87;;;12.10;58.80;;;;;;5021043;28;20194;-52
2023/04/14 06:03:53;;;;;;;4.63;4.23;;;12.30;58.70;;;;;;5021336;28;20188;-50
2023/04/14 06:06:19;;;;;;;5.33;4.20;;;12.40;58.00;;;;;;5011591;28;20501;-49
2023/04/14 06:08:44;;;;;;;5.53;3.90;;;12.30;57.00;;;;;;5024168;28;20211;-49
2023/04/14 06:11:10;;;;;;;4.50;4.10;;;12.40;57.20;;;;;;5023441;28;20283;-49
2023/04/14 06:13:36;;;;;;;4.63;4.10;;;12.50;57.20;;;;;;5020045;28;20751;-53
2023/04/14 06:16:01;;;;;;;5.70;4.53;;;12.50;57.30;;;;;;5030458;28;20209;-48
2023/04/14 06:18:27;;;;;;;4.80;4.30;;;12.60;57.00;;;;;;5025960;28;20251;-49
2023/04/14 06:20:53;;;;;;;4.63;4.20;;;12.70;56.80;;;;;;5027071;28;20215;-50
2023/04/14 06:23:20;;;;;;;5.37;4.60;;;12.70;57.20;;;;;;5017133;28;20199;-49
2023/04/14 06:25:46;;;;;;;5.10;4.60;;;12.70;57.10;;;;;;5018426;28;20205;-50
2023/04/14 06:28:11;;;;;;;7.73;6.10;;;12.80;56.90;;;;;;5025574;28;20444;-50
2023/04/14 06:30:37;;;;;;;6.60;5.30;;;13.00;56.80;;;;;;5024351;28;20648;-49
2023/04/14 06:33:03;;;;;;;6.50;5.80;;;12.90;56.50;;;;;;5022806;28;20205;-49
2023/04/14 06:35:33;;;;;;;6.70;5.37;;;13.00;56.70;;;;;;5023781;28;20200;-49
2023/04/14 06:38:00;;;;;;;5.30;4.70;;;13.10;56.60;;;;;;5030949;28;21021;-48
2023/04/14 06:40:25;;;;;;;7.50;5.40;;;13.30;56.80;;;;;;5021060;28;20865;-51
2023/04/14 06:42:51;;;;;;;4.90;4.50;;;13.40;57.10;;;;;;5027254;28;20459;-49
2023/04/14 06:45:17;;;;;;;5.40;4.90;;;13.40;56.30;;;;;;5024573;28;20201;-53
2023/04/14 06:47:42;;;;;;;7.00;5.00;;;13.50;56.50;;;;;;5018678;28;20198;-48
2023/04/14 06:50:08;;;;;;;6.73;5.00;;;13.60;56.60;;;;;;5021685;28;20201;-51
2023/04/14 06:52:34;;;;;;;6.13;5.53;;;13.70;56.90;;;;;;5024474;28;20278;-49
2023/04/14 06:54:59;;;;;;;5.90;5.30;;;13.60;56.80;;;;;;5024690;28;20468;-50
2023/04/14 06:57:26;;;;;;;6.37;5.33;;;13.80;57.10;;;;;;5018807;28;20189;-50
2023/04/14 06:59:51;;;;;;;7.07;5.47;;;13.90;56.60;;;;;;5024630;28;20232;-51
2023/04/14 07:02:17;;;;;;;7.60;6.43;;;14.00;56.90;;;;;;5029991;28;20454;-52
2023/04/14 07:04:42;;;;;;;7.30;5.77;;;14.10;56.40;;;;;;5029101;28;20661;-53
2023/04/14 07:07:08;;;;;;;6.50;5.90;;;14.30;56.50;;;;;;5027645;28;20291;-49
2023/04/14 07:09:34;;;;;;;6.90;5.43;;;14.50;56.10;;;;;;5024362;28;20202;-48
2023/04/14 07:12:00;;;;;;;7.43;5.30;;;14.70;55.20;;;;;;5033686;28;20196;-48
2023/04/14 07:14:26;;;;;;;6.33;5.13;;;14.80;54.50;;;;;;5032896;28;20558;-49
2023/04/14 07:16:52;;;;;;;6.30;4.53;;;14.90;54.10;;;;;;5034473;28;20419;-48
2023/04/14 07:19:18;;;;;;;5.40;4.73;;;15.00;54.10;;;;;;5034409;28;20228;-51
2023/04/14 07:21:47;;;;;;;5.77;4.80;;;15.10;53.30;;;;;;5033945;28;20856;-52
2023/04/14 07:24:12;;;;;;;8.20;4.40;;;15.30;53.60;;;;;;5032841;28;20447;-50
2023/04/14 07:26:38;;;;;;;7.10;4.67;;;15.50;53.00;;;;;;5025295;28;20436;-52
2023/04/14 07:29:04;;;;;;;6.03;4.40;;;15.60;52.50;;;;;;5027968;28;20193;-48
2023/04/14 07:31:34;;;;;;;6.60;4.80;;;15.70;51.10;;;;;;5023203;28;20204;-49
2023/04/14 07:34:00;;;;;;;5.47;4.47;;;15.70;50.70;;;;;;5025289;28;20200;-49
2023/04/14 07:36:26;;;;;;;7.17;3.87;;;15.90;51.50;;;;;;5026662;28;20444;-49
2023/04/14 07:38:52;;;;;;;7.53;3.87;;;16.00;51.40;;;;;;5018977;28;20564;-49
2023/04/14 07:41:17;;;;;;;6.50;4.50;;;16.10;50.20;;;;;;5024866;28;20935;-48
2023/04/14 07:43:43;;;;;;;6.87;4.00;;;16.20;50.30;;;;;;5024999;28;21091;-48
2023/04/14 07:46:08;;;;;;;10.90;4.53;;;16.30;51.10;;;;;;5022360;28;20185;-50
2023/04/14 07:48:35;;;;;;;6.30;3.93;;;16.40;51.30;;;;;;5025905;28;20322;-49
2023/04/14 07:51:01;;;;;;;7.83;3.60;;;16.40;50.80;;;;;;5017034;28;20190;-52
2023/04/14 07:53:27;;;;;;;7.63;4.20;;;16.30;50.10;;;;;;5022083;28;20525;-52
2023/04/14 07:55:53;;;;;;;7.80;3.27;;;16.40;50.50;;;;;;5018962;28;20456;-55
2023/04/14 07:58:18;;;;;;;5.10;3.40;;;16.50;49.90;;;;;;5020970;28;20205;-53
2023/04/14 08:00:44;;;;;;;3.40;2.80;;;16.70;49.50;;;;;;5031084;28;20197;-53
2023/04/14 08:03:10;;;;;;;4.67;3.40;;;16.80;49.10;;;;;;5021979;28;20201;-50
2023/04/14 08:05:36;;;;;;;7.70;3.27;;;16.70;49.10;;;;;;5023414;28;20451;-52
2023/04/14 08:08:02;;;;;;;12.43;3.67;;;16.80;48.50;;;;;;5020686;28;20186;-50
2023/04/14 08:10:27;;;;;;;4.23;2.87;;;16.80;48.60;;;;;;5019761;28;20448;-51
2023/04/14 08:12:53;;;;;;;5.20;2.63;;;16.90;48.40;;;;;;5020353;28;20203;-53
2023/04/14 08:15:18;;;;;;;5.97;3.63;;;17.00;47.90;;;;;;5020928;28;20224;-54
2023/04/14 08:17:44;;;;;;;5.63;3.20;;;17.10;48.40;;;;;;5028636;28;20540;-49
2023/04/14 08:20:10;;;;;;;4.90;3.10;;;17.10;48.20;;;;;;5018271;28;20260;-52
2023/04/14 08:22:36;;;;;;;6.50;2.93;;;17.20;48.00;;;;;;5017539;28;20280;-50
2023/04/14 08:25:02;;;;;;;4.90;2.70;;;17.30;49.00;;;;;;5019273;28;20455;-49
2023/04/14 08:27:27;;;;;;;5.20;3.03;;;17.30;48.60;;;;;;5025516;28;20455;-51
2023/04/14 08:29:53;;;;;;;4.40;2.53;;;17.50;48.00;;;;;;5032195;28;20283;-49
2023/04/14 08:32:19;;;;;;;3.63;2.40;;;17.60;47.80;;;;;;5017305;28;20197;-53
2023/04/14 08:34:45;;;;;;;6.60;2.23;;;17.80;47.90;;;;;;5027472;28;20202;-51
2023/04/14 08:37:10;;;;;;;4.13;3.10;;;17.90;48.10;;;;;;5016167;28;20200;-49
2023/04/14 08:39:36;;;;;;;3.90;3.50;;;18.00;47.90;;;;;;5021844;28;20225;-49
2023/04/14 08:42:01;;;;;;;4.90;3.07;;;18.10;46.70;;;;;;5026142;28;20190;-49
2023/04/14 08:44:28;;;;;;;6.70;2.47;;;18.20;47.00;;;;;;5022638;28;20775;-50
2023/04/14 08:46:54;;;;;;;5.80;2.93;;;18.20;45.20;;;;;;5013934;28;20248;-52
2023/04/14 08:49:40;;;;;;;5.23;2.47;;;18.30;45.40;;;;;;5022673;28;20808;-52
2023/04/14 08:52:11;;;;;;;7.53;2.83;;;18.40;45.10;;;;;;5021864;28;20490;-49
2023/04/14 08:54:41;;;;;;;7.00;2.10;;;18.50;46.10;;;;;;5018708;28;20476;-53
2023/04/14 08:57:13;;;;;;;7.07;2.80;;;18.60;46.70;;;;;;5024790;28;20793;-50
2023/04/14 08:59:41;;;;;;;10.33;2.83;;;18.60;44.70;;;;;;5013949;28;20915;-50
2023/04/14 09:02:09;;;;;;;4.67;2.57;;;18.80;44.70;;;;;;5019900;28;22069;-51
2023/04/14 09:04:36;;;;;;;4.60;2.30;;;18.80;42.50;;;;;;5016793;28;21942;-50
2023/04/14 09:07:02;;;;;;;5.10;2.33;;;18.80;43.00;;;;;;5039891;28;20447;-51
2023/04/14 09:09:29;;;;;;;5.90;2.00;;;18.90;42.40;;;;;;5028659;28;20531;-49
2023/04/14 09:11:56;;;;;;;3.40;2.10;;;18.70;43.10;;;;;;5017952;28;20963;-51
2023/04/14 09:14:22;;;;;;;7.17;2.00;;;18.70;42.80;;;;;;5017999;28;20570;-51
2023/04/14 09:16:52;;;;;;;4.73;2.17;;;18.70;43.60;;;;;;5018410;28;20447;-50
2023/04/14 09:19:21;;;;;;;5.07;2.40;;;18.80;42.70;;;;;;5019963;28;20657;-50
2023/04/14 09:21:47;;;;;;;3.63;2.00;;;19.00;43.90;;;;;;5020953;28;20494;-50
2023/04/14 09:24:16;;;;;;;4.70;2.10;;;19.10;43.20;;;;;;5035011;28;20846;-49
2023/04/14 09:26:42;;;;;;;5.60;2.33;;;19.20;43.30;;;;;;5034594;28;20194;-51
2023/04/14 09:29:08;;;;;;;3.20;1.87;;;19.30;43.50;;;;;;5026517;28;20475;-50
2023/04/14 09:31:33;;;;;;;7.13;2.40;;;19.40;42.80;;;;;;5018035;28;20190;-49
2023/04/14 09:33:59;;;;;;;5.00;2.30;;;19.60;42.40;;;;;;5028093;28;20217;-53
2023/04/14 09:36:27;;;;;;;7.57;2.30;;;19.70;42.20;;;;;;5019181;28;20587;-52
2023/04/14 09:38:54;;;;;;;5.77;3.00;;;19.90;43.60;;;;;;5027330;28;20223;-49
2023/04/14 09:41:21;;;;;;;7.93;2.37;;;20.10;42.70;;;;;;5016002;28;20544;-49
2023/04/14 09:43:48;;;;;;;9.20;2.83;;;20.30;42.00;;;;;;5024617;28;20447;-50
2023/04/14 09:46:14;;;;;;;8.70;2.43;;;20.40;41.10;;;;;;5025984;28;20447;-51
2023/04/14 09:48:54;;;;;;;3.80;1.80;;;20.40;41.40;;;;;;5033698;28;20456;-48
2023/04/14 09:51:26;;;;;;;6.03;2.60;;;20.60;39.80;;;;;;5020303;28;20451;-50
2023/04/14 09:53:53;;;;;;;5.93;2.03;;;20.70;41.10;;;;;;5027782;28;20938;-50
2023/04/14 09:56:20;;;;;;;6.03;2.23;;;20.80;38.90;;;;;;5021573;28;20441;-48
2023/04/14 09:58:47;;;;;;;6.70;3.07;;;21.00;40.50;;;;;;5028977;28;20562;-48
2023/04/14 10:01:15;;;;;;;4.63;2.40;;;21.10;41.30;;;;;;5023899;28;20451;-48
2023/04/14 10:03:45;;;;;;;5.13;2.20;;;21.30;39.40;;;;;;5021740;28;20467;-47
2023/04/14 10:06:19;;;;;;;5.10;2.10;;;21.50;38.70;;;;;;5033468;28;20463;-48
2023/04/14 10:08:50;;;;;;;3.73;2.00;;;21.50;37.70;;;;;;5025873;28;20457;-48
2023/04/14 10:11:21;;;;;;;7.17;2.23;;;21.70;38.80;;;;;;5018342;28;20544;-51
2023/04/14 10:13:49;;;;;;;7.50;2.30;;;21.90;37.20;;;;;;5026867;28;20483;-52
2023/04/14 10:16:15;;;;;;;5.60;2.10;;;22.00;35.70;;;;;;5024275;28;20451;-49
2023/04/14 10:18:41;;;;;;;3.50;2.00;;;22.10;38.60;;;;;;5032676;28;20987;-50
2023/04/14 10:21:08;;;;;;;6.03;2.17;;;22.20;37.20;;;;;;5017928;28;20528;-48
2023/04/14 10:23:38;;;;;;;4.30;2.00;;;22.30;38.10;;;;;;5020109;28;20498;-52
2023/04/14 10:26:06;;;;;;;7.70;2.97;;;22.30;37.70;;;;;;5026126;28;20448;-51
2023/04/14 10:28:33;;;;;;;5.60;2.30;;;22.30;37.50;;;;;;5029388;28;20474;-48
2023/04/14 10:31:00;;;;;;;6.67;2.20;;;22.40;37.60;;;;;;5018067;28;20864;-52
2023/04/14 10:33:27;;;;;;;13.27;2.70;;;22.60;37.60;;;;;;5024056;28;20476;-49
2023/04/14 10:35:59;;;;;;;7.00;2.27;;;22.60;37.00;;;;;;5022710;28;20559;-49
2023/04/14 10:38:45;;;;;;;7.73;2.40;;;22.60;36.40;;;;;;5012711;28;20856;-49
2023/04/14 10:41:11;;;;;;;7.50;2.37;;;22.70;36.10;;;;;;5018373;28;20444;-50
2023/04/14 10:43:38;;;;;;;4.03;2.23;;;22.80;37.30;;;;;;5013518;28;20905;-52
2023/04/14 10:46:06;;;;;;;7.60;2.63;;;22.80;36.40;;;;;;5028274;28;20448;-49
2023/04/14 10:48:34;;;;;;;4.83;1.90;;;23.10;36.90;;;;;;5020572;28;20447;-50
2023/04/14 10:51:03;;;;;;;7.10;2.77;;;23.20;37.70;;;;;;5015627;28;20552;-50
2023/04/14 10:53:54;;;;;;;4.30;2.23;;;23.30;35.70;;;;;;5017997;28;20508;-49
2023/04/14 10:56:20;;;;;;;7.20;2.03;;;23.10;33.90;;;;;;5022662;28;20452;-54
2023/04/14 10:58:57;;;;;;;2.83;1.60;;;22.90;34.50;;;;;;5024393;28;20495;-53
2023/04/14 11:01:30;;;;;;;4.47;2.00;;;22.70;33.60;;;;;;5027643;28;20865;-53
2023/04/14 11:03:57;;;;;;;5.73;2.73;;;22.40;34.10;;;;;;5011485;28;20476;-53
2023/04/14 11:06:45;;;;;;;6.30;2.10;;;22.40;35.40;;;;;;5027868;28;20473;-52
2023/04/14 11:09:29;;;;;;;3.43;1.90;;;22.10;36.00;;;;;;5025734;28;20507;-52
2023/04/14 11:11:56;;;;;;;6.37;2.03;;;22.10;36.10;;;;;;5019952;28;20477;-53
2023/04/14 11:14:30;;;;;;;4.70;2.43;;;22.00;35.20;;;;;;5016412;28;20482;-53
2023/04/14 11:17:20;;;;;;;6.90;2.03;;;22.00;36.10;;;;;;5024576;28;20449;-54
2023/04/14 11:19:46;;;;;;;3.80;1.80;;;21.90;35.30;;;;;;5019085;28;20576;-53
2023/04/14 11:22:12;;;;;;;3.70;1.60;;;22.00;36.40;;;;;;5026425;28;20477;-52
2023/04/14 11:24:38;;;;;;;3.03;1.67;;;22.10;36.20;;;;;;5028629;28;20197;-52
2023/04/14 11:27:04;;;;;;;4.13;2.20;;;22.20;36.70;;;;;;5023548;28;20208;-54
2023/04/14 11:29:30;;;;;;;6.30;2.13;;;22.30;36.00;;;;;;5027292;28;20800;-53
2023/04/14 11:32:05;;;;;;;6.53;1.97;;;22.40;33.60;;;;;;5023514;28;20654;-54
2023/04/14 11:34:32;;;;;;;4.67;2.10;;;22.50;32.30;;;;;;5024051;28;20664;-53
2023/04/14 11:37:00;;;;;;;5.33;2.33;;;22.30;33.20;;;;;;5019430;28;20448;-53
2023/04/14 11:39:27;;;;;;;5.47;2.27;;;22.30;33.10;;;;;;5016953;28;21326;-54
2023/04/14 11:41:54;;;;;;;2.70;1.63;;;22.30;33.00;;;;;;5020180;28;20531;-52
2023/04/14 11:44:21;;;;;;;3.77;1.73;;;22.20;32.30;;;;;;5014696;28;20449;-52
2023/04/14 11:46:46;;;;;;;6.77;2.17;;;22.20;33.00;;;;;;5022483;28;20798;-53
2023/04/14 11:49:12;;;;;;;6.03;2.00;;;22.20;32.40;;;;;;5014886;28;20443;-53
2023/04/14 11:51:39;;;;;;;3.77;2.03;;;22.20;33.10;;;;;;5014976;28;20244;-53
2023/04/14 11:54:05;;;;;;;3.77;1.83;;;22.20;33.90;;;;;;5044872;28;20703;-51
2023/04/14 11:56:31;;;;;;;3.77;1.80;;;22.40;34.10;;;;;;5037739;28;20953;-53
2023/04/14 11:59:01;;;;;;;4.30;1.73;;;22.40;33.40;;;;;;5026347;28;20491;-52
2023/04/14 12:01:28;;;;;;;6.47;1.93;;;22.30;34.10;;;;;;5028868;28;20455;-52
2023/04/14 12:03:55;;;;;;;4.63;2.10;;;22.30;33.60;;;;;;5025688;28;20439;-51
2023/04/14 12:06:21;;;;;;;4.77;1.77;;;22.20;33.00;;;;;;5028949;28;20443;-53
2023/04/14 12:08:54;;;;;;;7.57;1.70;;;22.30;35.00;;;;;;5026536;28;20510;-50
2023/04/14 12:11:19;;;;;;;4.00;1.70;;;22.60;34.70;;;;;;5032280;28;20534;-53
2023/04/14 12:13:46;;;;;;;4.70;2.60;;;22.60;35.90;;;;;;5032976;28;20520;-50
2023/04/14 12:16:13;;;;;;;5.43;1.73;;;22.70;31.90;;;;;;5028910;28;20436;-53
2023/04/14 12:18:39;;;;;;;5.27;2.00;;;22.80;31.50;;;;;;5010554;28;20861;-52
2023/04/14 12:21:05;;;;;;;6.23;2.80;;;22.70;31.40;;;;;;5024305;28;22150;-53
2023/04/14 12:23:38;;;;;;;3.00;1.80;;;22.80;31.70;;;;;;5024570;28;20469;-51
2023/04/14 12:26:10;;;;;;;4.57;1.93;;;23.00;32.30;;;;;;5028793;28;20498;-54
2023/04/14 12:28:38;;;;;;;6.67;1.80;;;22.90;31.40;;;;;;5024984;28;20846;-50
2023/04/14 12:31:03;;;;;;;8.50;1.90;;;22.70;31.80;;;;;;5017640;28;20440;-52
2023/04/14 12:33:31;;;;;;;2.67;1.40;;;22.80;30.60;;;;;;5023372;28;20448;-51
2023/04/14 12:36:10;;;;;;;2.97;1.43;;;22.60;29.60;;;;;;5022867;28;20872;-50
2023/04/14 12:38:36;;;;;;;1.60;1.13;;;22.50;29.10;;;;;;5015251;28;20488;-53
2023/04/14 12:41:01;;;;;;;3.20;1.47;;;22.60;30.60;;;;;;5013078;28;20875;-52
2023/04/14 12:43:39;;;;;;;3.47;1.40;;;22.80;30.00;;;;;;5015679;28;20205;-51
2023/04/14 12:46:08;;;;;;;1.83;1.20;;;23.10;28.30;;;;;;5023093;28;20681;-50